Time;durP1;ratioP1;P1;durP2;ratioP2;P2;SDS_P1;SDS_P2;PMS_P1;PMS_P2;Temp;Humidity;BMP_temperature;BMP_pressure;BME280_temperature;BME280_humidity;BME280_pressure;Samples;Min_cycle;Max_cycle;Signal;HPM_P1;HPM_P2
2022/01/24 00:03:28;;;;;;;6.90;6.30;;;7.60;45.20;;;;;;10479122;28;20240;-69
2022/01/24 00:08:31;;;;;;;6.60;6.00;;;7.60;45.30;;;;;;10472415;28;20240;-69
2022/01/24 00:29:38;;;;;;;5.10;4.67;;;7.60;44.90;;;;;;10471601;28;20271;-69
2022/01/24 00:34:42;;;;;;;4.90;4.50;;;7.60;44.80;;;;;;10476753;28;20236;-69
2022/01/24 00:39:47;;;;;;;4.40;4.00;;;7.60;45.10;;;;;;10474150;28;20273;-69
2022/01/24 00:45:05;;;;;;;4.30;3.90;;;7.50;44.80;;;;;;10470979;28;20224;-69
2022/01/24 00:55:30;;;;;;;4.20;3.90;;;7.50;45.20;;;;;;10471707;28;20764;-70
2022/01/24 01:00:34;;;;;;;3.07;2.83;;;7.50;45.20;;;;;;10463941;28;20583;-69
2022/01/24 01:05:57;;;;;;;4.07;3.67;;;7.60;45.30;;;;;;10470267;28;20320;-70
2022/01/24 01:21:43;;;;;;;4.53;4.13;;;7.60;45.30;;;;;;10471088;28;20240;-69
2022/01/24 01:26:51;;;;;;;4.93;4.43;;;7.60;45.10;;;;;;10470083;28;20232;-69
2022/01/24 01:32:04;;;;;;;4.90;4.50;;;7.60;44.80;;;;;;10469642;28;20220;-69
2022/01/24 01:37:29;;;;;;;4.77;4.37;;;7.60;44.90;;;;;;10471324;28;20225;-69
2022/01/24 01:53:45;;;;;;;3.53;3.23;;;7.50;44.80;;;;;;10468944;28;20224;-69
2022/01/24 01:58:48;;;;;;;3.77;3.47;;;7.50;44.80;;;;;;10465320;28;20240;-69
2022/01/24 02:03:57;;;;;;;4.37;3.97;;;7.50;44.80;;;;;;10462067;28;20248;-70
2022/01/24 02:09:04;;;;;;;4.53;4.13;;;7.50;44.80;;;;;;10459740;28;20220;-70
2022/01/24 02:14:11;;;;;;;4.30;3.90;;;7.60;44.80;;;;;;10466467;28;20220;-69
2022/01/24 02:19:31;;;;;;;4.70;4.30;;;7.60;44.90;;;;;;10464445;28;20751;-69
2022/01/24 02:24:42;;;;;;;4.50;4.20;;;7.60;44.80;;;;;;10467795;28;20242;-69
2022/01/24 02:29:54;;;;;;;4.43;4.03;;;7.50;44.80;;;;;;10465500;28;20239;-69
2022/01/24 02:34:59;;;;;;;4.30;4.00;;;7.50;44.80;;;;;;10466299;28;20347;-69
2022/01/24 02:40:13;;;;;;;4.33;3.93;;;7.50;44.80;;;;;;10435612;28;20214;-69
2022/01/24 02:50:59;;;;;;;4.10;3.70;;;7.50;44.80;;;;;;10423625;28;20580;-69
2022/01/24 02:56:04;;;;;;;3.30;3.00;;;7.40;44.70;;;;;;10424492;28;20223;-69
2022/01/24 03:01:08;;;;;;;3.60;3.30;;;7.40;44.70;;;;;;10416913;28;20784;-69
2022/01/24 03:06:11;;;;;;;3.90;3.60;;;7.40;45.40;;;;;;10422891;28;20244;-69
2022/01/24 03:11:17;;;;;;;4.70;4.30;;;7.40;44.70;;;;;;10421951;28;20308;-69
2022/01/24 03:16:23;;;;;;;3.93;3.63;;;7.40;44.70;;;;;;10420487;28;20704;-69
2022/01/24 03:21:26;;;;;;;3.53;3.23;;;7.40;44.70;;;;;;10423282;28;20240;-69
2022/01/24 03:26:31;;;;;;;3.87;3.57;;;7.40;44.70;;;;;;10421712;28;20279;-70
2022/01/24 03:31:34;;;;;;;3.63;3.33;;;7.40;44.70;;;;;;10423259;28;20233;-69
2022/01/24 03:36:39;;;;;;;3.63;3.33;;;7.30;44.60;;;;;;10415986;28;20225;-70
2022/01/24 03:41:44;;;;;;;2.87;2.67;;;7.30;44.60;;;;;;10422729;28;20236;-70
2022/01/24 03:47:12;;;;;;;3.03;2.50;;;7.30;44.60;;;;;;10426067;28;20724;-69
2022/01/24 03:52:16;;;;;;;2.57;2.37;;;7.20;44.60;;;;;;10419863;28;20239;-70
2022/01/24 03:57:21;;;;;;;4.33;2.03;;;7.20;44.30;;;;;;10427561;28;20228;-69
2022/01/24 04:02:26;;;;;;;2.60;2.40;;;7.10;44.00;;;;;;10418913;28;20236;-70
2022/01/24 04:07:31;;;;;;;2.30;2.20;;;7.10;44.00;;;;;;10428892;28;20233;-69
2022/01/24 04:12:37;;;;;;;2.63;2.43;;;7.00;44.00;;;;;;10420281;28;20229;-69
2022/01/24 04:18:24;;;;;;;3.50;2.60;;;7.00;43.90;;;;;;10419979;28;20313;-69
2022/01/24 04:23:27;;;;;;;2.77;2.57;;;6.90;43.80;;;;;;10418418;28;20237;-69
2022/01/24 04:28:32;;;;;;;2.60;2.40;;;6.90;44.00;;;;;;10413036;28;20252;-69
2022/01/24 04:33:35;;;;;;;2.80;2.60;;;6.80;43.60;;;;;;10419221;28;20257;-69
2022/01/24 04:38:38;;;;;;;2.70;2.50;;;6.70;43.60;;;;;;10430394;28;20233;-69
2022/01/24 04:43:55;;;;;;;2.73;2.53;;;6.70;43.50;;;;;;10425424;28;20232;-69
2022/01/24 04:59:42;;;;;;;2.23;2.13;;;6.50;43.30;;;;;;10425418;28;20229;-69
2022/01/24 05:04:45;;;;;;;2.90;2.60;;;6.30;43.20;;;;;;10424541;28;20745;-69
2022/01/24 05:10:01;;;;;;;11.27;9.77;;;6.30;43.50;;;;;;10424302;28;20233;-69
2022/01/24 05:25:58;;;;;;;5.60;4.60;;;6.10;43.60;;;;;;10424593;28;20221;-69
2022/01/24 05:31:04;;;;;;;6.63;5.47;;;6.10;43.70;;;;;;10431649;28;20217;-68
2022/01/24 05:36:07;;;;;;;10.63;8.30;;;6.10;43.60;;;;;;10427158;28;20225;-69
2022/01/24 05:41:10;;;;;;;6.93;5.90;;;6.00;43.50;;;;;;10424187;28;20221;-69
2022/01/24 05:46:15;;;;;;;6.63;5.17;;;6.00;43.50;;;;;;10426891;28;20225;-67
2022/01/24 05:51:20;;;;;;;4.97;4.47;;;5.90;43.50;;;;;;10423401;28;20221;-68
2022/01/24 05:56:23;;;;;;;3.93;3.53;;;5.80;43.40;;;;;;10430493;28;20741;-69
2022/01/24 06:01:28;;;;;;;4.50;4.00;;;5.70;44.00;;;;;;10426112;28;20225;-68
2022/01/24 06:06:31;;;;;;;3.80;3.30;;;5.70;43.30;;;;;;10421381;28;20228;-68
2022/01/24 06:11:34;;;;;;;3.27;2.97;;;5.60;43.30;;;;;;10428066;28;20222;-69
2022/01/24 06:16:43;;;;;;;3.53;3.23;;;5.60;43.50;;;;;;10424541;28;20222;-69
2022/01/24 06:21:46;;;;;;;4.30;3.47;;;5.60;44.30;;;;;;10416764;28;20229;-68
2022/01/24 06:26:50;;;;;;;3.57;3.27;;;5.60;43.70;;;;;;10426246;28;20221;-68
2022/01/24 06:31:54;;;;;;;4.03;3.63;;;5.60;43.30;;;;;;10422278;28;20232;-69
2022/01/24 06:36:57;;;;;;;14.30;10.97;;;5.50;43.10;;;;;;10421132;28;20309;-69
2022/01/24 06:42:12;;;;;;;14.17;10.77;;;5.40;43.10;;;;;;10416806;28;20221;-68
2022/01/24 06:47:16;;;;;;;14.77;11.33;;;5.40;43.40;;;;;;10420455;28;20223;-69
2022/01/24 06:52:20;;;;;;;18.10;13.40;;;5.30;43.40;;;;;;10416770;28;20573;-69
2022/01/24 06:57:27;;;;;;;14.93;11.23;;;5.30;43.60;;;;;;10421213;28;20229;-69
2022/01/24 07:02:32;;;;;;;15.37;12.10;;;5.30;43.60;;;;;;10421895;28;20602;-68
2022/01/24 07:07:35;;;;;;;14.33;11.37;;;5.30;43.30;;;;;;10422382;28;20297;-69
2022/01/24 07:12:38;;;;;;;12.40;10.50;;;5.30;43.30;;;;;;10419099;28;20229;-68
2022/01/24 07:18:01;;;;;;;12.77;10.87;;;5.30;43.40;;;;;;10417171;28;20217;-68
2022/01/24 07:23:04;;;;;;;12.87;11.53;;;5.20;43.30;;;;;;10419231;28;20712;-68
2022/01/24 07:28:07;;;;;;;11.33;9.53;;;5.20;43.30;;;;;;10419142;28;20229;-68
2022/01/24 07:33:14;;;;;;;8.80;7.90;;;5.20;43.20;;;;;;10420562;28;20229;-68
2022/01/24 07:38:17;;;;;;;9.90;8.30;;;5.10;43.20;;;;;;10420096;28;20224;-68
2022/01/24 07:43:23;;;;;;;11.10;8.80;;;5.10;43.50;;;;;;10418672;28;20752;-68
2022/01/24 07:48:29;;;;;;;10.87;9.10;;;5.10;43.60;;;;;;10422277;28;20227;-68
2022/01/24 07:53:33;;;;;;;8.97;8.07;;;5.10;43.50;;;;;;10420598;28;20229;-67
2022/01/24 07:58:45;;;;;;;8.77;7.97;;;5.10;43.70;;;;;;10419703;28;20772;-68
2022/01/24 08:03:51;;;;;;;9.57;8.50;;;5.10;44.00;;;;;;10421151;28;20358;-69
2022/01/24 08:08:55;;;;;;;9.17;8.20;;;5.20;44.30;;;;;;10423919;28;20362;-67
2022/01/24 08:13:58;;;;;;;7.87;7.17;;;5.30;44.60;;;;;;10428107;28;20229;-68
2022/01/24 08:19:03;;;;;;;7.13;6.50;;;5.40;44.90;;;;;;10429001;28;20248;-68
2022/01/24 08:24:08;;;;;;;7.83;7.03;;;5.50;44.90;;;;;;10423990;28;20591;-68
2022/01/24 08:29:13;;;;;;;7.43;6.73;;;5.70;45.20;;;;;;10416157;28;20224;-68
2022/01/24 08:34:17;;;;;;;7.87;6.60;;;5.80;45.30;;;;;;10423774;28;20254;-68
2022/01/24 08:39:20;;;;;;;7.37;6.73;;;6.00;45.30;;;;;;10420884;28;20233;-69
2022/01/24 08:45:40;;;;;;;7.63;6.93;;;6.20;45.40;;;;;;10449410;28;20547;-69
2022/01/24 08:49:52;;;;;;;8.03;6.60;;;6.30;45.20;;;;;;10420325;28;20912;-68
2022/01/24 08:54:56;;;;;;;7.90;6.77;;;6.50;45.20;;;;;;10418193;28;20229;-68
2022/01/24 08:59:59;;;;;;;6.97;6.37;;;6.70;45.30;;;;;;10423092;28;20701;-68
2022/01/24 09:05:04;;;;;;;7.20;6.60;;;6.80;45.10;;;;;;10418372;28;20584;-68
2022/01/24 09:10:11;;;;;;;7.13;6.53;;;7.00;45.30;;;;;;10418476;28;20229;-68
2022/01/24 09:15:14;;;;;;;7.40;6.70;;;7.10;45.40;;;;;;10418843;28;20229;-68
2022/01/24 09:20:19;;;;;;;6.70;6.20;;;7.30;45.40;;;;;;10421088;28;20221;-68
2022/01/24 09:25:23;;;;;;;6.17;5.67;;;7.50;45.40;;;;;;10421999;28;20239;-68
2022/01/24 09:30:30;;;;;;;5.57;5.17;;;7.70;45.30;;;;;;10423364;28;20228;-68
2022/01/24 09:35:34;;;;;;;5.97;5.37;;;7.90;45.10;;;;;;10418315;28;20228;-68
2022/01/24 09:40:38;;;;;;;6.30;5.70;;;8.00;44.90;;;;;;10415499;28;20229;-69
2022/01/24 09:45:43;;;;;;;3.80;3.50;;;8.20;45.30;;;;;;10418805;28;20237;-69
2022/01/24 09:50:50;;;;;;;3.57;3.27;;;8.30;44.90;;;;;;10416315;28;20312;-69
2022/01/24 09:55:55;;;;;;;3.10;2.90;;;8.40;44.40;;;;;;10422602;28;20228;-69
2022/01/24 10:01:01;;;;;;;3.00;2.80;;;8.40;44.30;;;;;;10425402;28;20267;-69
2022/01/24 10:06:05;;;;;;;2.80;2.60;;;8.50;44.70;;;;;;10423235;28;20248;-69
2022/01/24 10:11:09;;;;;;;2.30;2.20;;;8.60;44.40;;;;;;10428198;28;20225;-69
2022/01/24 10:16:25;;;;;;;2.17;2.07;;;8.80;44.60;;;;;;10421216;28;20233;-69
2022/01/24 10:21:31;;;;;;;3.30;2.90;;;9.00;43.90;;;;;;10423831;28;20233;-69
2022/01/24 10:26:34;;;;;;;2.63;2.50;;;9.10;43.80;;;;;;10420201;28;20232;-69
2022/01/24 10:31:47;;;;;;;2.80;2.60;;;9.20;44.10;;;;;;10413447;28;20228;-69
2022/01/24 10:36:53;;;;;;;2.90;2.70;;;9.40;42.70;;;;;;10418710;28;20289;-70
2022/01/24 10:47:51;;;;;;;2.67;2.53;;;9.60;42.00;;;;;;10387297;28;20212;-69
2022/01/24 10:52:57;;;;;;;2.77;2.57;;;9.70;42.60;;;;;;10414124;28;20229;-69
2022/01/24 10:58:07;;;;;;;2.63;2.43;;;9.80;42.40;;;;;;10416555;28;20697;-69
2022/01/24 11:03:17;;;;;;;3.17;2.97;;;9.90;41.70;;;;;;10416677;28;20588;-70
2022/01/24 11:08:23;;;;;;;3.33;3.13;;;10.00;40.50;;;;;;10414044;28;20233;-70
2022/01/24 11:13:31;;;;;;;3.40;3.20;;;10.10;41.20;;;;;;10413045;28;20236;-70
2022/01/24 11:18:37;;;;;;;2.93;2.67;;;10.20;41.30;;;;;;10415909;28;20486;-69
2022/01/24 11:23:46;;;;;;;2.73;2.53;;;10.30;40.40;;;;;;10417891;28;20221;-69
2022/01/24 11:28:51;;;;;;;2.70;2.50;;;10.40;40.60;;;;;;10417523;28;20232;-69
2022/01/24 11:34:00;;;;;;;2.10;2.00;;;10.50;40.90;;;;;;10424506;28;20240;-70
2022/01/24 11:39:06;;;;;;;2.03;1.93;;;10.50;40.40;;;;;;10418463;28;20228;-69
2022/01/24 11:44:21;;;;;;;2.97;2.77;;;10.50;39.50;;;;;;10420321;28;21250;-69
2022/01/24 11:49:32;;;;;;;3.03;2.80;;;10.50;38.70;;;;;;10404084;28;20809;-70
2022/01/24 11:54:49;;;;;;;3.40;3.10;;;10.40;38.00;;;;;;10406959;28;20225;-71
2022/01/24 11:59:53;;;;;;;3.23;3.03;;;10.20;39.00;;;;;;10405190;28;20225;-71
2022/01/24 12:04:59;;;;;;;3.33;3.03;;;10.10;40.00;;;;;;10404429;28;20225;-71
2022/01/24 12:10:37;;;;;;;3.67;3.37;;;10.10;40.00;;;;;;10399149;28;20716;-70
2022/01/24 12:15:57;;;;;;;4.17;3.87;;;10.00;38.80;;;;;;10406507;28;20229;-69
2022/01/24 12:21:09;;;;;;;3.70;3.40;;;9.90;38.70;;;;;;10403426;28;20228;-70
2022/01/24 12:26:25;;;;;;;3.63;3.33;;;9.70;39.60;;;;;;10413580;28;20865;-70
2022/01/24 12:31:42;;;;;;;3.67;3.37;;;9.60;39.90;;;;;;10424374;28;20229;-69
2022/01/24 12:36:50;;;;;;;3.13;2.93;;;9.60;40.50;;;;;;10420141;28;20228;-70
2022/01/24 12:41:58;;;;;;;3.10;2.90;;;9.60;40.50;;;;;;10418185;28;20238;-70
2022/01/24 12:47:04;;;;;;;2.80;2.60;;;9.60;40.50;;;;;;10415693;28;20248;-69
2022/01/24 12:52:11;;;;;;;2.80;2.60;;;9.50;40.50;;;;;;10424647;28;20231;-69
2022/01/24 12:57:15;;;;;;;2.73;2.53;;;9.50;40.50;;;;;;10421055;28;20743;-69
2022/01/24 13:02:24;;;;;;;2.60;2.40;;;9.40;40.40;;;;;;10419539;28;20239;-69
2022/01/24 13:07:30;;;;;;;2.80;2.60;;;9.40;39.80;;;;;;10422771;28;20659;-69
2022/01/24 13:12:33;;;;;;;2.50;2.30;;;9.40;40.50;;;;;;10424011;28;20233;-69
2022/01/24 13:23:01;;;;;;;2.83;2.53;;;9.50;40.50;;;;;;10419812;28;20221;-69
2022/01/24 13:28:06;;;;;;;2.50;2.30;;;9.50;40.50;;;;;;10420425;28;20232;-69
2022/01/24 13:33:14;;;;;;;2.67;2.47;;;9.50;40.50;;;;;;10422683;28;20232;-69
2022/01/24 13:38:19;;;;;;;3.27;2.73;;;9.60;40.50;;;;;;10424291;28;20222;-69
2022/01/24 13:43:34;;;;;;;2.83;2.60;;;9.60;40.30;;;;;;10426024;28;20232;-69
2022/01/24 13:48:45;;;;;;;3.03;2.83;;;9.60;39.30;;;;;;10423864;28;20236;-69
2022/01/24 13:53:54;;;;;;;3.07;2.57;;;9.60;40.10;;;;;;10421734;28;20784;-69
2022/01/24 13:59:04;;;;;;;2.97;2.70;;;9.60;40.50;;;;;;10419986;28;20221;-68
2022/01/24 14:04:09;;;;;;;3.47;2.67;;;9.60;40.50;;;;;;10416408;28;20257;-68
2022/01/24 14:09:15;;;;;;;2.80;2.60;;;9.50;39.60;;;;;;10417530;28;20264;-69
2022/01/24 14:14:30;;;;;;;3.30;3.00;;;9.40;40.40;;;;;;10419680;28;20228;-69
2022/01/24 14:19:36;;;;;;;5.00;2.87;;;9.50;38.90;;;;;;10421082;28;20689;-68
2022/01/24 14:24:51;;;;;;;3.53;2.60;;;9.40;39.70;;;;;;10420854;28;20275;-69
2022/01/24 14:30:06;;;;;;;2.90;2.70;;;9.40;38.90;;;;;;10424815;28;20597;-69
2022/01/24 14:35:11;;;;;;;3.10;2.80;;;9.30;38.90;;;;;;10418045;28;20221;-69
2022/01/24 14:40:45;;;;;;;3.70;3.40;;;9.30;40.30;;;;;;10420815;28;20233;-68
2022/01/24 14:45:55;;;;;;;3.87;3.07;;;9.30;39.00;;;;;;10425854;28;20613;-68
2022/01/24 14:50:59;;;;;;;3.73;3.20;;;9.30;40.30;;;;;;10422495;28;20247;-69
2022/01/24 14:56:02;;;;;;;3.10;2.80;;;9.30;40.30;;;;;;10422466;28;20241;-69
2022/01/24 15:01:06;;;;;;;3.77;3.47;;;9.20;40.20;;;;;;10422964;28;20239;-68
2022/01/24 15:06:12;;;;;;;3.43;3.23;;;9.10;40.10;;;;;;10420730;28;20227;-68
2022/01/24 15:11:20;;;;;;;5.23;3.90;;;9.20;40.20;;;;;;10426126;28;20657;-68
2022/01/24 15:16:34;;;;;;;4.23;3.87;;;9.10;40.10;;;;;;10414038;28;20229;-69
2022/01/24 15:27:06;;;;;;;4.20;3.57;;;9.00;40.10;;;;;;10423479;28;20225;-69
2022/01/24 15:32:12;;;;;;;4.40;4.00;;;9.00;40.10;;;;;;10424324;28;20713;-69
2022/01/24 15:37:20;;;;;;;4.13;3.83;;;9.00;40.10;;;;;;10420264;28;21118;-69
2022/01/24 15:42:39;;;;;;;4.50;4.20;;;8.90;40.00;;;;;;10421062;28;20235;-69
2022/01/24 15:47:47;;;;;;;3.83;3.53;;;8.90;40.00;;;;;;10419431;28;20223;-69
2022/01/24 15:52:55;;;;;;;5.67;5.17;;;8.80;39.90;;;;;;10420708;28;20233;-69
2022/01/24 15:57:59;;;;;;;5.70;5.20;;;8.80;39.90;;;;;;10418149;28;20220;-69
2022/01/24 16:03:04;;;;;;;5.53;4.97;;;8.90;40.00;;;;;;10415177;28;20581;-68
2022/01/24 16:08:15;;;;;;;7.10;5.97;;;8.90;40.00;;;;;;10418141;28;20225;-69
2022/01/24 16:13:21;;;;;;;7.73;7.03;;;8.90;40.00;;;;;;10424201;28;20702;-68
2022/01/24 16:18:31;;;;;;;10.87;8.50;;;8.80;39.90;;;;;;10417713;28;20225;-69
2022/01/24 16:23:46;;;;;;;8.20;7.40;;;8.80;39.90;;;;;;10420977;28;20233;-69
2022/01/24 16:28:49;;;;;;;7.50;6.80;;;8.80;39.90;;;;;;10421271;28;20239;-69
2022/01/24 16:34:05;;;;;;;6.67;6.07;;;8.80;39.90;;;;;;10431036;28;20790;-69
2022/01/24 16:39:19;;;;;;;11.03;8.63;;;8.80;39.90;;;;;;10434111;28;20666;-69
2022/01/24 16:44:38;;;;;;;7.17;6.47;;;8.70;39.80;;;;;;10431548;28;20236;-68
2022/01/24 16:50:02;;;;;;;10.63;7.23;;;8.70;39.80;;;;;;10432381;28;20224;-69
2022/01/24 16:55:08;;;;;;;8.20;7.40;;;8.60;39.70;;;;;;10419505;28;20229;-68
2022/01/24 17:00:15;;;;;;;6.83;6.23;;;8.60;39.70;;;;;;10421614;28;20217;-70
2022/01/24 17:05:18;;;;;;;7.27;6.57;;;8.50;39.70;;;;;;10449295;28;20220;-69
2022/01/24 17:10:23;;;;;;;6.90;6.23;;;8.50;39.70;;;;;;10457015;28;20229;-69
2022/01/24 17:15:35;;;;;;;10.80;9.70;;;8.40;39.60;;;;;;10456201;28;20239;-69
2022/01/24 17:20:40;;;;;;;24.40;18.77;;;8.30;39.50;;;;;;10453217;28;20231;-70
2022/01/24 17:25:47;;;;;;;16.17;12.13;;;8.20;39.50;;;;;;10457773;28;20228;-69
2022/01/24 17:30:53;;;;;;;12.00;10.70;;;8.10;39.30;;;;;;10462095;28;20235;-69
2022/01/24 17:35:59;;;;;;;10.70;9.60;;;8.10;39.30;;;;;;10454906;28;20232;-69
2022/01/24 17:41:07;;;;;;;8.87;7.97;;;8.00;39.30;;;;;;10458910;28;20220;-70
2022/01/24 17:46:10;;;;;;;9.93;8.93;;;7.90;39.20;;;;;;10456840;28;20607;-70
2022/01/24 17:51:20;;;;;;;10.53;9.47;;;7.80;39.10;;;;;;10461320;28;20716;-69
2022/01/24 17:56:25;;;;;;;10.80;9.80;;;7.70;39.20;;;;;;10456952;28;20228;-69
2022/01/24 18:01:33;;;;;;;11.07;10.00;;;7.60;39.00;;;;;;10459102;28;20236;-69
2022/01/24 18:06:38;;;;;;;9.43;8.53;;;7.60;39.10;;;;;;10452710;28;20705;-69
2022/01/24 18:11:54;;;;;;;9.77;8.87;;;7.50;39.30;;;;;;10456583;28;20217;-69
2022/01/24 18:16:57;;;;;;;7.87;7.07;;;7.40;38.80;;;;;;10453084;28;20220;-69
2022/01/24 18:22:00;;;;;;;7.83;7.13;;;7.30;39.40;;;;;;10456133;28;20228;-68
2022/01/24 18:27:06;;;;;;;8.50;7.70;;;7.30;39.60;;;;;;10455932;28;20228;-68
2022/01/24 18:32:10;;;;;;;7.77;7.07;;;7.20;39.30;;;;;;10454799;28;20229;-68
2022/01/24 18:37:14;;;;;;;10.20;9.30;;;7.10;39.50;;;;;;10457254;28;20220;-68
2022/01/24 18:42:23;;;;;;;20.20;18.20;;;7.10;39.50;;;;;;10454225;28;20232;-68
2022/01/24 18:47:28;;;;;;;20.73;18.53;;;7.00;39.30;;;;;;10456741;28;20233;-69
2022/01/24 18:52:31;;;;;;;16.80;14.57;;;6.90;39.50;;;;;;10459873;28;20237;-69
2022/01/24 18:57:41;;;;;;;18.30;16.17;;;6.90;39.80;;;;;;10457598;28;20236;-69
2022/01/24 19:02:44;;;;;;;17.00;15.20;;;6.80;39.50;;;;;;10451047;28;20229;-69
2022/01/24 19:07:51;;;;;;;13.87;11.80;;;6.80;39.50;;;;;;10450986;28;20277;-69
2022/01/24 19:12:56;;;;;;;15.70;13.40;;;6.70;39.70;;;;;;10451772;28;20634;-69
2022/01/24 19:18:14;;;;;;;11.93;10.70;;;6.60;39.60;;;;;;10442772;28;20224;-69
2022/01/24 19:23:18;;;;;;;12.53;11.33;;;6.60;39.50;;;;;;10447568;28;20230;-71
2022/01/24 19:28:25;;;;;;;14.80;12.93;;;6.50;39.50;;;;;;10443639;28;20229;-69
2022/01/24 19:33:29;;;;;;;12.80;11.17;;;6.50;39.40;;;;;;10446543;28;20244;-69
2022/01/24 19:38:32;;;;;;;11.30;10.10;;;6.30;39.50;;;;;;10447266;28;20755;-69
2022/01/24 19:43:37;;;;;;;8.77;7.70;;;6.30;39.60;;;;;;10442928;28;20220;-69
2022/01/24 19:48:42;;;;;;;8.93;8.13;;;6.20;39.70;;;;;;10443187;28;20247;-70
2022/01/24 19:53:48;;;;;;;9.60;8.63;;;6.20;39.70;;;;;;10442947;28;20224;-70
2022/01/24 19:59:03;;;;;;;7.83;7.03;;;6.20;39.80;;;;;;10440504;28;20599;-70
2022/01/24 20:04:08;;;;;;;9.27;8.27;;;6.10;39.80;;;;;;10445638;28;20220;-69
2022/01/24 20:09:11;;;;;;;9.83;8.93;;;6.10;39.80;;;;;;10450594;28;20246;-70
2022/01/24 20:14:16;;;;;;;9.30;8.40;;;6.00;39.80;;;;;;10454307;28;20402;-70
2022/01/24 20:19:36;;;;;;;10.03;8.50;;;5.90;39.80;;;;;;10456016;28;20230;-70
2022/01/24 20:24:42;;;;;;;8.57;7.73;;;5.90;40.60;;;;;;10456687;28;20224;-70
2022/01/24 20:29:49;;;;;;;8.73;7.83;;;5.90;39.90;;;;;;10452510;28;20251;-70
2022/01/24 20:34:56;;;;;;;8.43;7.53;;;5.80;39.80;;;;;;10456048;28;20225;-71
2022/01/24 20:40:02;;;;;;;10.30;9.20;;;5.80;39.80;;;;;;10458311;28;20228;-72
2022/01/24 20:45:08;;;;;;;15.13;12.70;;;5.70;39.90;;;;;;10456882;28;20293;-71
2022/01/24 20:50:16;;;;;;;12.63;11.33;;;5.70;39.80;;;;;;10458016;28;20221;-70
2022/01/24 20:55:19;;;;;;;11.30;10.17;;;5.60;39.80;;;;;;10450915;28;20260;-71
2022/01/24 21:00:28;;;;;;;11.47;10.27;;;5.50;40.00;;;;;;10446476;28;20927;-71
2022/01/24 21:05:31;;;;;;;10.10;9.10;;;5.40;40.00;;;;;;10449129;28;20231;-71
2022/01/24 21:10:37;;;;;;;9.97;8.73;;;5.40;40.10;;;;;;10451083;28;20228;-71
2022/01/24 21:15:43;;;;;;;10.47;9.37;;;5.40;40.30;;;;;;10449802;28;20235;-70
2022/01/24 21:20:52;;;;;;;9.80;8.80;;;5.40;40.80;;;;;;10454157;28;20886;-73
2022/01/24 21:25:55;;;;;;;11.10;10.00;;;5.40;40.00;;;;;;10456489;28;20320;-73
2022/01/24 21:31:00;;;;;;;11.03;9.93;;;5.30;40.00;;;;;;10454871;28;20254;-73
2022/01/24 21:36:06;;;;;;;10.37;9.37;;;5.30;40.00;;;;;;10454361;28;20240;-71
2022/01/24 21:41:29;;;;;;;11.30;10.17;;;5.30;40.20;;;;;;10456661;28;20237;-68
2022/01/24 21:46:34;;;;;;;10.60;8.80;;;5.20;39.80;;;;;;10460079;28;20216;-69
2022/01/24 21:51:40;;;;;;;10.27;9.27;;;5.10;39.80;;;;;;10454869;28;20686;-69
2022/01/24 21:56:43;;;;;;;9.27;8.33;;;5.10;40.00;;;;;;10453451;28;20223;-68
2022/01/24 22:01:51;;;;;;;11.53;10.43;;;5.00;40.00;;;;;;10440716;28;20639;-68
2022/01/24 22:07:03;;;;;;;8.30;7.50;;;5.00;40.10;;;;;;10446543;28;20221;-68
2022/01/24 22:12:07;;;;;;;10.30;9.30;;;4.90;40.10;;;;;;10449357;28;20281;-70
2022/01/24 22:17:13;;;;;;;14.13;12.67;;;4.90;40.30;;;;;;10453149;28;20315;-69
2022/01/24 22:27:35;;;;;;;12.10;10.83;;;4.80;40.10;;;;;;10455021;28;20228;-68
2022/01/24 22:32:40;;;;;;;14.07;11.43;;;4.80;40.00;;;;;;10454012;28;20236;-68
2022/01/24 22:37:43;;;;;;;13.40;10.63;;;4.70;39.80;;;;;;10453135;28;20692;-68
2022/01/24 22:42:47;;;;;;;26.70;13.10;;;4.70;39.90;;;;;;10454275;28;20237;-68
2022/01/24 22:47:54;;;;;;;37.73;11.83;;;4.30;39.90;;;;;;10455620;28;20759;-68
2022/01/24 22:52:58;;;;;;;57.17;14.03;;;4.10;40.40;;;;;;10456061;28;20340;-68
2022/01/24 22:58:06;;;;;;;97.50;14.73;;;3.80;40.70;;;;;;10456234;28;20225;-68
2022/01/24 23:03:11;;;;;;;89.53;12.93;;;3.70;41.20;;;;;;10433638;28;20232;-68
2022/01/24 23:08:14;;;;;;;43.23;10.70;;;3.60;41.60;;;;;;10406915;28;20267;-68
2022/01/24 23:13:27;;;;;;;56.37;12.33;;;3.60;41.60;;;;;;10410930;28;20231;-68
2022/01/24 23:19:09;;;;;;;45.33;13.30;;;3.60;41.60;;;;;;10422653;28;20236;-68
2022/01/24 23:24:09;;;;;;;36.20;13.17;;;3.60;41.90;;;;;;10413949;28;20716;-68
2022/01/24 23:29:15;;;;;;;18.17;10.93;;;3.60;42.00;;;;;;10420860;28;20958;-68
2022/01/24 23:38:53;;;;;;;29.97;10.93;;;3.70;42.10;;;;;;10415276;28;20239;-68
2022/01/24 23:40:02;;;;;;;35.13;11.33;;;3.60;42.50;;;;;;10411238;28;20221;-68
2022/01/24 23:45:07;;;;;;;14.97;11.30;;;3.60;42.40;;;;;;10413139;28;20224;-69
2022/01/24 23:50:13;;;;;;;21.27;10.43;;;3.60;42.60;;;;;;10413518;28;20225;-69
2022/01/24 23:55:16;;;;;;;12.00;10.07;;;3.60;42.80;;;;;;10418019;28;20308;-68
